Cheyenne, WY

5:46 AM MDT on July 24, 2016 (GMT -0600)
Cheyenne | | Change Station

Elev 6142 ft 41.16 °N, 104.81 °W | Updated 9 minutes ago

Scattered Clouds
Scattered Clouds
74 °F
Feels Like 74 °F
N
6
Wind Variable Wind from North
Gusts 18 mph

Today
High -- | Low -- °F
--% Chance of Precip.
Yesterday
High -- | Low -- °F
Precip. -- in
Pressure 30.18 in
Visibility 10.0 miles
Clouds Scattered Clouds 9500 ft
Dew Point 39 °F
Humidity 28%
Rainfall 0.00 in
Snow Depth Not available.
5:47 AM 8:23 PM
Waning Gibbous, 77% visible
SPECI KCYS 241137Z AUTO 35005G16KT 10SM SCT095 23/04 A3018 RMK AO2 PK WND 35032/1124 WSHFT 1119 LTG DSNT NE AND E RAB1057E33 TSE1054B22E37 P0000 T02330039
Pressure 30.18 in
Visibility 10.0 miles
Clouds Scattered Clouds 9500 ft
Dew Point 39 °F
Humidity 28%
Rainfall 0.00 in
Snow Depth Not available.
5:47 AM 8:23 PM
Waning Gibbous, 77% visible
SPECI KCYS 241137Z AUTO 35005G16KT 10SM SCT095 23/04 A3018 RMK AO2 PK WND 35032/1124 WSHFT 1119 LTG DSNT NE AND E RAB1057E33 TSE1054B22E37 P0000 T02330039

10-Day Weather Forecast

Almanac

Astronomy

Jul. 24, 2016 Rise Set
Actual Time
Civil Twilight
Nautical Twilight
Astronomical Twilight
Moon
Length of Visible Light
Length of Day
Tomorrow will be .
, % of the Moon is Illuminated

Today's Extremes

State Highs State Lows

Community

WunderPhotos

Upload Photos

1,927,049 photos uploaded!

WunderBlog® & News

Nearby

Air Quality

  Air Quality AQ Index Pollutant
Not available.

Snow Depth

Station Depth Elevation

Earthquake Activity

City Distance Mag. Time & Date
Minimum magnitude displayed is 2.5.

Coastal Water Temperatures

Place Temperature

Stations

Nearby Weather Stations

Station Location Temp. Windchill Dew Point Humidity Wind Precip. Elev Updated Type
                   

Watches & Warnings

There are currently no watches in effect.